Time;durP1;ratioP1;P1;durP2;ratioP2;P2;SDS_P1;SDS_P2;PMS_P1;PMS_P2;Temp;Humidity;BMP_temperature;BMP_pressure;BME280_temperature;BME280_humidity;BME280_pressure;Samples;Min_cycle;Max_cycle;Signal;HPM_P1;HPM_P2
2022/10/21 00:00:03;;;;;;;;;;;;;;;14.77;68.60;100419.47;1237761;24;607;-73
2022/10/21 00:00:53;;;;;;;;;;;;;;;14.76;68.77;100416.91;1237866;24;635;-73
2022/10/21 00:01:44;;;;;;;;;;;;;;;14.77;68.61;100416.78;1237826;23;638;-73
2022/10/21 00:02:34;;;;;;;;;;;;;;;14.77;68.88;100422.13;1237806;24;619;-73
2022/10/21 00:03:25;;;;;;;;;;;;;;;14.77;68.88;100419.47;1243394;23;858;-73
2022/10/21 00:04:15;;;;;;;;;;;;;;;14.77;68.83;100416.78;1242518;23;634;-73
2022/10/21 00:05:06;;;;;;;;;;;;;;;14.78;68.50;100420.31;1237256;24;659;-73
2022/10/21 00:05:56;;;;;;;;;;;;;;;14.77;68.78;100424.81;1243275;23;731;-73
2022/10/21 00:06:47;;;;;;;;;;;;;;;14.78;68.64;100423.00;1242537;23;662;-73
2022/10/21 00:07:37;;;;;;;;;;;;;;;14.79;68.54;100419.31;1237143;24;563;-73
2022/10/21 00:08:27;;;;;;;;;;;;;;;14.77;68.56;100419.47;1237791;24;721;-73
2022/10/21 00:09:18;;;;;;;;;;;;;;;14.77;68.81;100423.97;1237194;24;612;-73
2022/10/21 00:10:08;;;;;;;;;;;;;;;14.78;68.27;100421.16;1237670;24;674;-73
2022/10/21 00:10:59;;;;;;;;;;;;;;;14.77;68.49;100429.34;1237806;24;694;-73
2022/10/21 00:11:49;;;;;;;;;;;;;;;14.76;68.45;100424.94;1237707;24;566;-73
2022/10/21 00:12:40;;;;;;;;;;;;;;;14.76;68.63;100425.81;1237669;24;654;-73
2022/10/21 00:13:30;;;;;;;;;;;;;;;14.77;69.01;100421.28;1237764;24;688;-73
2022/10/21 00:14:20;;;;;;;;;;;;;;;14.77;68.49;100421.28;1237793;24;662;-73
2022/10/21 00:15:11;;;;;;;;;;;;;;;14.77;68.85;100415.91;1237732;23;614;-73
2022/10/21 00:16:01;;;;;;;;;;;;;;;14.78;68.75;100423.84;1237695;24;622;-73
2022/10/21 00:16:52;;;;;;;;;;;;;;;14.77;68.54;100422.13;1237814;24;650;-73
2022/10/21 00:17:42;;;;;;;;;;;;;;;14.77;68.46;100427.50;1237661;24;686;-73
2022/10/21 00:18:33;;;;;;;;;;;;;;;14.77;68.42;100427.50;1243181;23;675;-73
2022/10/21 00:19:23;;;;;;;;;;;;;;;14.78;68.67;100425.66;1242478;23;643;-73
2022/10/21 00:20:14;;;;;;;;;;;;;;;14.78;68.39;100433.72;1237101;24;639;-73
2022/10/21 00:21:04;;;;;;;;;;;;;;;14.77;68.67;100427.50;1237816;24;611;-73
2022/10/21 00:21:54;;;;;;;;;;;;;;;14.78;68.45;100428.34;1237846;24;630;-73
2022/10/21 00:22:45;;;;;;;;;;;;;;;14.77;68.39;100429.34;1237610;24;792;-73
2022/10/21 00:23:35;;;;;;;;;;;;;;;14.77;68.65;100430.19;1237079;24;658;-73
2022/10/21 00:24:26;;;;;;;;;;;;;;;14.77;68.78;100429.34;1237787;24;627;-73
2022/10/21 00:25:16;;;;;;;;;;;;;;;14.77;68.86;100432.88;1237729;24;595;-73
2022/10/21 00:26:07;;;;;;;;;;;;;;;14.76;68.83;100427.63;1237761;24;642;-73
2022/10/21 00:26:57;;;;;;;;;;;;;;;14.76;68.84;100431.16;1237862;24;623;-74
2022/10/21 00:27:48;;;;;;;;;;;;;;;14.76;68.65;100431.16;1237550;24;651;-73
2022/10/21 00:28:38;;;;;;;;;;;;;;;14.74;68.53;100433.13;1237737;24;666;-73
2022/10/21 00:29:28;;;;;;;;;;;;;;;14.76;68.56;100436.53;1237823;23;619;-73
2022/10/21 00:30:19;;;;;;;;;;;;;;;14.76;68.55;100427.63;1237728;24;654;-73
2022/10/21 00:31:09;;;;;;;;;;;;;;;14.77;68.81;100426.66;1237841;24;670;-73
2022/10/21 00:32:00;;;;;;;;;;;;;;;14.76;68.72;100425.81;1237702;24;651;-73
2022/10/21 00:32:50;;;;;;;;;;;;;;;14.76;68.61;100435.69;1237728;24;702;-73
2022/10/21 00:33:40;;;;;;;;;;;;;;;14.77;68.46;100430.19;1237694;24;740;-73
2022/10/21 00:34:31;;;;;;;;;;;;;;;14.77;68.71;100432.88;1237761;24;669;-73
2022/10/21 00:35:21;;;;;;;;;;;;;;;14.77;68.88;100432.88;1237385;24;1399;-73
2022/10/21 00:36:13;;;;;;;;;;;;;;;14.77;68.52;100432.03;1237746;24;649;-73
2022/10/21 00:37:04;;;;;;;;;;;;;;;14.77;68.58;100432.88;1237765;23;615;-73
2022/10/21 00:37:54;;;;;;;;;;;;;;;14.77;68.42;100432.88;1237736;24;677;-73
2022/10/21 00:38:45;;;;;;;;;;;;;;;14.77;68.65;100440.91;1237597;24;718;-73
2022/10/21 00:39:35;;;;;;;;;;;;;;;14.77;68.66;100438.22;1237646;24;655;-73
2022/10/21 00:40:26;;;;;;;;;;;;;;;14.77;68.64;100440.06;1237725;24;639;-73
2022/10/21 00:41:16;;;;;;;;;;;;;;;14.76;68.65;100441.91;1237541;24;655;-73
2022/10/21 00:42:06;;;;;;;;;;;;;;;14.76;68.94;100436.53;1237712;24;607;-73
2022/10/21 00:42:57;;;;;;;;;;;;;;;14.75;68.69;100434.84;1237717;24;725;-73
2022/10/21 00:43:47;;;;;;;;;;;;;;;14.74;69.04;100432.28;1237636;24;674;-73
2022/10/21 00:44:38;;;;;;;;;;;;;;;14.74;68.84;100425.09;1237632;24;647;-73
2022/10/21 00:45:28;;;;;;;;;;;;;;;14.73;68.70;100431.44;1237747;24;659;-73
2022/10/21 00:46:19;;;;;;;;;;;;;;;14.74;68.93;100427.78;1237654;24;658;-73
2022/10/21 00:47:09;;;;;;;;;;;;;;;14.73;68.53;100420.72;1243313;23;666;-73
2022/10/21 00:47:59;;;;;;;;;;;;;;;14.73;68.84;100426.06;1242325;23;1952;-73
2022/10/21 00:48:50;;;;;;;;;;;;;;;14.73;69.08;100427.91;1238120;23;654;-73
2022/10/21 00:49:40;;;;;;;;;;;;;;;14.72;69.08;100428.88;1236566;24;625;-73
2022/10/21 00:50:31;;;;;;;;;;;;;;;14.73;69.04;100426.06;1236362;24;679;-73
2022/10/21 00:51:21;;;;;;;;;;;;;;;14.74;68.94;100426.91;1237611;24;714;-73
2022/10/21 00:52:11;;;;;;;;;;;;;;;14.74;68.69;100429.59;1238484;23;627;-73
2022/10/21 00:53:02;;;;;;;;;;;;;;;14.71;69.07;100422.69;1237592;24;745;-73
2022/10/21 00:53:52;;;;;;;;;;;;;;;14.72;68.86;100424.38;1237588;24;655;-73
2022/10/21 00:54:43;;;;;;;;;;;;;;;14.73;68.65;100428.75;1237646;24;710;-73
2022/10/21 00:55:33;;;;;;;;;;;;;;;14.72;68.77;100424.38;1243111;23;651;-73
2022/10/21 00:56:24;;;;;;;;;;;;;;;14.71;68.92;100422.69;1238099;23;670;-73
2022/10/21 00:57:14;;;;;;;;;;;;;;;14.71;68.71;100420.00;1237403;24;662;-73
2022/10/21 00:58:04;;;;;;;;;;;;;;;14.73;68.63;100426.06;1236918;24;690;-73
2022/10/21 00:58:55;;;;;;;;;;;;;;;14.74;68.98;100422.41;1237628;24;739;-73
2022/10/21 00:59:45;;;;;;;;;;;;;;;14.75;68.75;100424.09;1237726;23;803;-73
2022/10/21 01:00:36;;;;;;;;;;;;;;;14.76;68.99;100419.59;1243216;23;666;-73
2022/10/21 01:01:26;;;;;;;;;;;;;;;14.73;68.73;100418.03;1242233;23;654;-73
2022/10/21 01:02:17;;;;;;;;;;;;;;;14.73;68.78;100423.38;1237211;24;643;-73
2022/10/21 01:03:07;;;;;;;;;;;;;;;14.74;68.67;100417.03;1237732;24;717;-73
2022/10/21 01:04:00;;;;;;;;;;;;;;;14.72;69.54;100419.00;1237652;24;656;-73
2022/10/21 01:04:50;;;;;;;;;;;;;;;14.72;68.80;100418.16;1236826;24;615;-74
2022/10/21 01:05:41;;;;;;;;;;;;;;;14.70;69.25;100414.75;1237720;24;615;-73
2022/10/21 01:06:31;;;;;;;;;;;;;;;14.71;68.88;100411.09;1243061;23;619;-73
2022/10/21 01:07:22;;;;;;;;;;;;;;;14.72;69.45;100420.84;1237544;23;756;-73
2022/10/21 01:08:12;;;;;;;;;;;;;;;14.71;68.96;100421.81;1237165;24;1873;-73
2022/10/21 01:09:02;;;;;;;;;;;;;;;14.71;69.12;100419.16;1236927;24;659;-73
2022/10/21 01:09:53;;;;;;;;;;;;;;;14.71;68.97;100417.31;1237701;24;874;-73
2022/10/21 01:10:43;;;;;;;;;;;;;;;14.71;69.00;100422.69;1237719;24;650;-73
2022/10/21 01:11:34;;;;;;;;;;;;;;;14.70;70.64;100420.97;1237682;24;632;-73
2022/10/21 01:12:24;;;;;;;;;;;;;;;14.70;69.52;100420.97;1237710;24;666;-74
2022/10/21 01:13:15;;;;;;;;;;;;;;;14.70;68.87;100410.25;1237763;23;689;-73
2022/10/21 01:14:05;;;;;;;;;;;;;;;14.70;69.08;100412.94;1237645;24;756;-73
2022/10/21 01:14:55;;;;;;;;;;;;;;;14.69;69.51;100403.19;1237679;24;623;-73
2022/10/21 01:15:46;;;;;;;;;;;;;;;14.72;68.93;100412.78;1237722;24;663;-73
2022/10/21 01:16:36;;;;;;;;;;;;;;;14.73;69.04;100407.28;1237616;24;626;-73
2022/10/21 01:17:27;;;;;;;;;;;;;;;14.73;68.84;100398.41;1237709;23;642;-73
2022/10/21 01:18:17;;;;;;;;;;;;;;;14.73;69.04;100393.88;1237655;24;607;-73
2022/10/21 01:19:08;;;;;;;;;;;;;;;14.73;68.97;100383.16;1238473;23;709;-73
2022/10/21 01:19:58;;;;;;;;;;;;;;;14.73;69.04;100390.34;1237635;24;647;-73
2022/10/21 01:20:48;;;;;;;;;;;;;;;14.73;68.73;100380.47;1237634;24;627;-73
2022/10/21 01:21:39;;;;;;;;;;;;;;;14.70;69.64;100378.06;1237146;24;654;-73
2022/10/21 01:22:29;;;;;;;;;;;;;;;14.68;69.61;100372.00;1237647;24;645;-73
2022/10/21 01:23:20;;;;;;;;;;;;;;;14.69;68.81;100368.31;1237695;23;686;-73
2022/10/21 01:24:10;;;;;;;;;;;;;;;14.72;68.95;100365.38;1237720;24;630;-73
2022/10/21 01:25:01;;;;;;;;;;;;;;;14.72;68.85;100364.50;1237585;24;826;-73
2022/10/21 01:25:51;;;;;;;;;;;;;;;14.74;68.93;100355.34;1237690;23;642;-73
2022/10/21 01:26:41;;;;;;;;;;;;;;;14.75;68.84;100353.53;1237603;24;687;-73
2022/10/21 01:27:32;;;;;;;;;;;;;;;14.76;69.05;100360.56;1237690;24;623;-73
2022/10/21 01:28:22;;;;;;;;;;;;;;;14.77;68.63;100357.75;1237630;24;1890;-73
2022/10/21 01:29:13;;;;;;;;;;;;;;;14.77;68.87;100357.75;1237661;24;650;-73
2022/10/21 01:30:05;;;;;;;;;;;;;;;14.76;68.76;100361.44;1243009;23;619;-73
2022/10/21 01:30:55;;;;;;;;;;;;;;;14.77;68.68;100356.91;1238152;23;674;-73
2022/10/21 01:31:45;;;;;;;;;;;;;;;14.76;68.80;100353.38;1237453;24;673;-73
2022/10/21 01:32:36;;;;;;;;;;;;;;;14.77;68.46;100357.75;1236949;24;643;-73
2022/10/21 01:33:26;;;;;;;;;;;;;;;14.77;68.81;100357.75;1237572;24;813;-73
2022/10/21 01:34:17;;;;;;;;;;;;;;;14.77;68.64;100356.91;1237710;24;674;-73
2022/10/21 01:35:07;;;;;;;;;;;;;;;14.74;68.78;100352.66;1237275;24;1051;-73
2022/10/21 01:35:58;;;;;;;;;;;;;;;14.74;68.98;100355.34;1237693;24;812;-73
2022/10/21 01:36:48;;;;;;;;;;;;;;;14.74;68.90;100357.19;1237681;23;674;-73
2022/10/21 01:37:39;;;;;;;;;;;;;;;14.73;68.83;100353.66;1237633;24;653;-73
2022/10/21 01:38:29;;;;;;;;;;;;;;;14.75;68.74;100366.94;1237591;24;619;-73
2022/10/21 01:39:19;;;;;;;;;;;;;;;14.75;68.71;100365.09;1237679;24;670;-73
2022/10/21 01:40:10;;;;;;;;;;;;;;;14.73;68.83;100361.69;1237637;24;810;-73
2022/10/21 01:41:01;;;;;;;;;;;;;;;14.73;68.82;100364.38;1243137;23;626;-73
2022/10/21 01:41:52;;;;;;;;;;;;;;;14.73;69.94;100364.38;1242415;23;662;-73
2022/10/21 01:42:42;;;;;;;;;;;;;;;14.73;69.14;100355.47;1236851;24;651;-73
2022/10/21 01:43:33;;;;;;;;;;;;;;;14.70;69.30;100356.59;1237568;24;670;-73
2022/10/21 01:44:23;;;;;;;;;;;;;;;14.72;68.81;100359.16;1237674;23;678;-73
2022/10/21 01:45:14;;;;;;;;;;;;;;;14.73;68.68;100350.97;1237795;23;678;-73
2022/10/21 01:46:04;;;;;;;;;;;;;;;14.74;69.17;100349.97;1237642;23;638;-73
2022/10/21 01:46:55;;;;;;;;;;;;;;;14.75;68.79;100346.31;1237731;24;639;-73
2022/10/21 01:47:45;;;;;;;;;;;;;;;14.76;68.74;100345.34;1237556;24;627;-73
2022/10/21 01:48:36;;;;;;;;;;;;;;;14.75;68.66;100348.16;1237752;24;686;-74
2022/10/21 01:49:26;;;;;;;;;;;;;;;14.73;68.65;100347.44;1237660;23;632;-73
2022/10/21 01:50:17;;;;;;;;;;;;;;;14.73;68.69;100355.47;1237570;24;595;-73
2022/10/21 01:51:07;;;;;;;;;;;;;;;14.74;68.92;100352.66;1237592;24;646;-73
2022/10/21 01:51:57;;;;;;;;;;;;;;;14.76;68.69;100356.06;1237641;24;638;-73
2022/10/21 01:52:48;;;;;;;;;;;;;;;14.74;68.81;100355.34;1237563;24;686;-73
2022/10/21 01:53:38;;;;;;;;;;;;;;;14.75;68.65;100354.38;1237562;24;611;-73
2022/10/21 01:54:29;;;;;;;;;;;;;;;14.76;68.76;100356.06;1237550;24;695;-73
2022/10/21 01:55:19;;;;;;;;;;;;;;;14.74;68.74;100352.66;1237658;24;619;-73
2022/10/21 01:56:10;;;;;;;;;;;;;;;14.73;68.94;100361.69;1237539;24;627;-73
2022/10/21 01:57:00;;;;;;;;;;;;;;;14.74;68.66;100363.41;1237500;24;617;-73
2022/10/21 01:57:50;;;;;;;;;;;;;;;14.74;68.89;100358.03;1237625;24;627;-73
2022/10/21 01:58:41;;;;;;;;;;;;;;;14.75;68.52;100358.88;1237632;23;658;-73
2022/10/21 01:59:31;;;;;;;;;;;;;;;14.75;68.95;100364.25;1243088;23;693;-73
2022/10/21 02:00:22;;;;;;;;;;;;;;;14.75;68.66;100362.41;1242333;23;650;-73
2022/10/21 02:01:12;;;;;;;;;;;;;;;14.76;68.84;100365.94;1236879;24;678;-73
2022/10/21 02:02:03;;;;;;;;;;;;;;;14.76;68.91;100361.44;1237654;24;862;-73
2022/10/21 02:02:53;;;;;;;;;;;;;;;14.77;68.56;100363.13;1237719;23;599;-73
2022/10/21 02:03:43;;;;;;;;;;;;;;;14.77;68.86;100359.59;1237590;24;655;-73
2022/10/21 02:04:34;;;;;;;;;;;;;;;14.75;68.90;100349.00;1237554;24;686;-73
2022/10/21 02:05:24;;;;;;;;;;;;;;;14.75;68.71;100356.19;1236956;24;619;-73
2022/10/21 02:06:15;;;;;;;;;;;;;;;14.76;68.65;100350.69;1237643;23;677;-73
2022/10/21 02:07:05;;;;;;;;;;;;;;;14.74;69.04;100352.66;1243040;23;678;-73
2022/10/21 02:07:56;;;;;;;;;;;;;;;14.74;68.58;100349.97;1243909;23;1890;-73
2022/10/21 02:08:46;;;;;;;;;;;;;;;14.75;68.50;100350.84;1236782;24;671;-73
2022/10/21 02:09:36;;;;;;;;;;;;;;;14.77;68.74;100356.91;1237569;24;745;-73
2022/10/21 02:10:27;;;;;;;;;;;;;;;14.77;68.48;100346.19;1237704;23;620;-73
2022/10/21 02:11:17;;;;;;;;;;;;;;;14.77;68.64;100354.22;1237667;24;877;-73
2022/10/21 02:12:08;;;;;;;;;;;;;;;14.77;68.65;100346.19;1237036;24;662;-73
2022/10/21 02:12:58;;;;;;;;;;;;;;;14.78;68.68;100350.56;1236773;24;626;-73
2022/10/21 02:13:49;;;;;;;;;;;;;;;14.78;68.47;100348.72;1237703;24;577;-73
2022/10/21 02:14:39;;;;;;;;;;;;;;;14.78;68.59;100347.88;1237569;24;655;-73
2022/10/21 02:15:30;;;;;;;;;;;;;;;14.78;68.88;100346.03;1237677;24;678;-73
2022/10/21 02:16:20;;;;;;;;;;;;;;;14.78;68.38;100355.94;1237592;24;723;-72
2022/10/21 02:17:10;;;;;;;;;;;;;;;14.77;68.67;100347.03;1237592;24;674;-72
2022/10/21 02:18:01;;;;;;;;;;;;;;;14.77;68.96;100351.53;1237647;24;658;-72
2022/10/21 02:18:51;;;;;;;;;;;;;;;14.78;68.72;100343.38;1237579;24;619;-72
2022/10/21 02:19:42;;;;;;;;;;;;;;;14.77;68.74;100344.34;1236991;24;642;-72
2022/10/21 02:20:32;;;;;;;;;;;;;;;14.77;68.67;100351.53;1237820;24;658;-72
2022/10/21 02:21:23;;;;;;;;;;;;;;;14.77;68.51;100338.13;1243470;23;666;-72
2022/10/21 02:22:13;;;;;;;;;;;;;;;14.77;68.61;100344.34;1242800;23;618;-72
2022/10/21 02:23:03;;;;;;;;;;;;;;;14.77;68.68;100338.97;1238998;23;690;-72
2022/10/21 02:23:54;;;;;;;;;;;;;;;14.77;68.76;100338.97;1238171;24;658;-72
2022/10/21 02:24:44;;;;;;;;;;;;;;;14.77;68.63;100336.31;1237923;24;659;-72
2022/10/21 02:25:35;;;;;;;;;;;;;;;14.77;68.78;100332.78;1237957;23;682;-72
2022/10/21 02:26:25;;;;;;;;;;;;;;;14.76;68.75;100337.28;1237980;24;678;-72
2022/10/21 02:27:15;;;;;;;;;;;;;;;14.77;68.61;100332.78;1237924;24;830;-72
2022/10/21 02:28:06;;;;;;;;;;;;;;;14.77;68.79;100330.94;1237948;24;1929;-72
2022/10/21 02:28:56;;;;;;;;;;;;;;;14.78;68.87;100337.16;1237968;24;667;-72
2022/10/21 02:29:47;;;;;;;;;;;;;;;14.79;68.73;100328.13;1237942;24;670;-72
2022/10/21 02:30:37;;;;;;;;;;;;;;;14.78;68.99;100327.28;1238015;24;701;-73
2022/10/21 02:31:28;;;;;;;;;;;;;;;14.77;68.45;100325.56;1237938;24;654;-73
2022/10/21 02:32:18;;;;;;;;;;;;;;;14.77;68.86;100325.56;1237877;24;670;-72
2022/10/21 02:33:10;;;;;;;;;;;;;;;14.78;68.89;100318.38;1237998;24;678;-72
2022/10/21 02:34:00;;;;;;;;;;;;;;;14.77;68.59;100328.25;1242810;23;673;-73
2022/10/21 02:34:51;;;;;;;;;;;;;;;14.76;68.67;100318.50;1242645;23;631;-73
2022/10/21 02:35:41;;;;;;;;;;;;;;;14.76;68.75;100313.16;1237357;24;677;-73
2022/10/21 02:36:31;;;;;;;;;;;;;;;14.76;68.62;100320.34;1238028;24;619;-73
2022/10/21 02:37:22;;;;;;;;;;;;;;;14.77;68.93;100320.22;1237826;24;670;-72
2022/10/21 02:38:12;;;;;;;;;;;;;;;14.76;69.01;100313.16;1237933;24;639;-73
2022/10/21 02:39:03;;;;;;;;;;;;;;;14.76;68.90;100315.84;1237851;23;639;-73
2022/10/21 02:39:53;;;;;;;;;;;;;;;14.77;68.93;100314.00;1237794;24;670;-73
2022/10/21 02:40:43;;;;;;;;;;;;;;;14.77;68.88;100314.00;1237919;24;630;-73
2022/10/21 02:41:34;;;;;;;;;;;;;;;14.77;68.67;100314.00;1237932;24;624;-73
2022/10/21 02:42:24;;;;;;;;;;;;;;;14.76;68.74;100306.94;1237928;24;604;-73
2022/10/21 02:43:15;;;;;;;;;;;;;;;14.76;68.66;100305.09;1243422;23;732;-73
2022/10/21 02:44:05;;;;;;;;;;;;;;;14.76;68.64;100307.78;1242601;23;659;-73
2022/10/21 02:44:56;;;;;;;;;;;;;;;14.76;69.11;100305.09;1238338;23;630;-73
2022/10/21 02:45:46;;;;;;;;;;;;;;;14.75;68.68;100311.44;1236895;24;646;-72
2022/10/21 02:46:36;;;;;;;;;;;;;;;14.75;68.74;100308.78;1237264;24;1035;-73
2022/10/21 02:47:28;;;;;;;;;;;;;;;14.76;68.76;100313.16;1237950;24;674;-73
2022/10/21 02:48:18;;;;;;;;;;;;;;;14.77;68.96;100301.44;1237896;23;1894;-73
2022/10/21 02:49:08;;;;;;;;;;;;;;;14.77;68.82;100308.63;1237929;24;667;-73
2022/10/21 02:49:59;;;;;;;;;;;;;;;14.76;68.56;100313.16;1238043;23;705;-73
2022/10/21 02:50:49;;;;;;;;;;;;;;;14.75;68.78;100311.44;1237958;24;662;-72
2022/10/21 02:51:40;;;;;;;;;;;;;;;14.74;68.92;100307.06;1238022;24;642;-73
2022/10/21 02:52:30;;;;;;;;;;;;;;;14.75;69.21;100310.59;1237843;24;968;-73
2022/10/21 02:53:21;;;;;;;;;;;;;;;14.74;68.70;100312.44;1237894;24;640;-72
2022/10/21 02:54:11;;;;;;;;;;;;;;;14.74;69.03;100307.06;1237948;24;671;-73
2022/10/21 02:55:01;;;;;;;;;;;;;;;14.73;69.00;100308.06;1237917;24;666;-73
2022/10/21 02:55:52;;;;;;;;;;;;;;;14.75;68.85;100307.91;1237976;23;639;-73
2022/10/21 02:56:42;;;;;;;;;;;;;;;14.74;68.81;100306.22;1237760;24;627;-73
2022/10/21 02:57:33;;;;;;;;;;;;;;;14.75;68.83;100306.09;1237972;24;666;-72
2022/10/21 02:58:23;;;;;;;;;;;;;;;14.75;69.13;100310.59;1237809;24;647;-73
2022/10/21 02:59:14;;;;;;;;;;;;;;;14.75;68.61;100308.78;1237895;24;686;-73
2022/10/21 03:00:04;;;;;;;;;;;;;;;14.73;69.01;100310.75;1237200;24;642;-73
2022/10/21 03:00:54;;;;;;;;;;;;;;;14.73;68.99;100312.56;1237854;24;667;-73
2022/10/21 03:01:45;;;;;;;;;;;;;;;14.74;69.21;100319.63;1237872;24;670;-73
2022/10/21 03:02:35;;;;;;;;;;;;;;;14.72;68.42;100317.09;1237068;24;678;-73
2022/10/21 03:03:26;;;;;;;;;;;;;;;14.71;69.24;100317.22;1242686;23;693;-72
2022/10/21 03:04:16;;;;;;;;;;;;;;;14.73;68.71;100317.94;1243429;23;669;-73
2022/10/21 03:05:07;;;;;;;;;;;;;;;14.73;68.98;100324.16;1237293;24;638;-73
2022/10/21 03:05:58;;;;;;;;;;;;;;;14.73;69.22;100312.56;1237151;24;679;-73
2022/10/21 03:06:48;;;;;;;;;;;;;;;14.73;68.85;100317.94;1237868;23;681;-73
2022/10/21 03:07:39;;;;;;;;;;;;;;;14.72;68.62;100317.09;1237911;24;732;-73
2022/10/21 03:08:29;;;;;;;;;;;;;;;14.73;68.92;100309.88;1237772;24;654;-73
2022/10/21 03:09:20;;;;;;;;;;;;;;;14.74;69.13;100323.16;1237946;24;685;-73
2022/10/21 03:10:10;;;;;;;;;;;;;;;14.73;68.67;100307.22;1237854;24;646;-73
2022/10/21 03:11:01;;;;;;;;;;;;;;;14.73;68.94;100309.88;1237889;23;677;-72
2022/10/21 03:11:51;;;;;;;;;;;;;;;14.74;68.76;100311.59;1237834;24;736;-72
2022/10/21 03:12:41;;;;;;;;;;;;;;;14.72;69.24;100317.09;1237742;24;673;-72
2022/10/21 03:13:32;;;;;;;;;;;;;;;14.73;68.79;100315.25;1237761;24;659;-73
2022/10/21 03:14:22;;;;;;;;;;;;;;;14.73;68.70;100312.56;1237904;23;645;-73
2022/10/21 03:15:13;;;;;;;;;;;;;;;14.71;68.95;100310.03;1237780;24;725;-73
2022/10/21 03:16:03;;;;;;;;;;;;;;;14.71;68.88;100315.38;1237841;23;678;-72
2022/10/21 03:16:54;;;;;;;;;;;;;;;14.72;68.71;100311.72;1237912;24;666;-73
2022/10/21 03:17:44;;;;;;;;;;;;;;;14.71;68.84;100310.03;1237331;24;655;-73
2022/10/21 03:18:34;;;;;;;;;;;;;;;14.71;68.99;100310.03;1237917;24;674;-72
2022/10/21 03:19:25;;;;;;;;;;;;;;;14.71;68.95;100304.66;1237762;24;687;-73
2022/10/21 03:20:15;;;;;;;;;;;;;;;14.72;68.70;100309.03;1238025;23;748;-72
2022/10/21 03:21:06;;;;;;;;;;;;;;;14.72;69.01;100305.50;1237887;24;725;-73
2022/10/21 03:21:56;;;;;;;;;;;;;;;14.72;69.05;100306.34;1237760;24;619;-72
2022/10/21 03:22:46;;;;;;;;;;;;;;;14.72;68.72;100301.00;1237909;24;870;-73
2022/10/21 03:23:37;;;;;;;;;;;;;;;14.72;68.79;100305.50;1237823;24;627;-73
2022/10/21 03:24:27;;;;;;;;;;;;;;;14.70;68.95;100302.13;1237952;24;682;-72
2022/10/21 03:25:18;;;;;;;;;;;;;;;14.71;69.17;100301.97;1237850;24;744;-73
2022/10/21 03:26:08;;;;;;;;;;;;;;;14.71;68.92;100304.66;1237957;24;646;-73
2022/10/21 03:26:59;;;;;;;;;;;;;;;14.71;69.00;100303.81;1237819;24;673;-72
2022/10/21 03:27:49;;;;;;;;;;;;;;;14.72;68.88;100306.34;1237810;23;681;-73
2022/10/21 03:28:40;;;;;;;;;;;;;;;14.72;69.03;100306.34;1243354;23;673;-73
2022/10/21 03:29:30;;;;;;;;;;;;;;;14.73;69.00;100307.22;1242556;23;618;-73
2022/10/21 03:30:20;;;;;;;;;;;;;;;14.71;68.74;100307.34;1238830;23;634;-73
2022/10/21 03:31:11;;;;;;;;;;;;;;;14.70;69.10;100305.66;1237835;24;918;-72
2022/10/21 03:32:01;;;;;;;;;;;;;;;14.69;69.16;100303.94;1237198;24;647;-73
2022/10/21 03:32:55;;;;;;;;;;;;;;;14.70;69.09;100319.06;1237880;24;701;-73
2022/10/21 03:33:45;;;;;;;;;;;;;;;14.69;68.91;100321.91;1237917;23;670;-73
2022/10/21 03:34:35;;;;;;;;;;;;;;;14.69;69.33;100312.00;1237784;24;697;-73
2022/10/21 03:35:26;;;;;;;;;;;;;;;14.70;69.09;100311.00;1237694;24;1154;-73
2022/10/21 03:36:16;;;;;;;;;;;;;;;14.69;69.09;100312.00;1237964;23;654;-72
2022/10/21 03:37:07;;;;;;;;;;;;;;;14.69;68.89;100309.31;1237864;23;594;-73
2022/10/21 03:38:00;;;;;;;;;;;;;;;14.69;68.74;100316.53;1237766;24;582;-72
2022/10/21 03:38:50;;;;;;;;;;;;;;;14.70;69.01;100312.84;1237839;24;671;-72
2022/10/21 03:39:41;;;;;;;;;;;;;;;14.69;69.09;100312.00;1243336;23;662;-73
2022/10/21 03:40:31;;;;;;;;;;;;;;;14.71;68.80;100318.06;1242396;23;654;-73
2022/10/21 03:41:22;;;;;;;;;;;;;;;14.70;69.00;100312.84;1237138;24;690;-73
2022/10/21 03:42:12;;;;;;;;;;;;;;;14.69;69.42;100313.84;1237769;24;608;-73
2022/10/21 03:43:05;;;;;;;;;;;;;;;14.69;68.79;100309.31;1243272;23;678;-73
2022/10/21 03:43:56;;;;;;;;;;;;;;;14.70;69.21;100307.47;1242495;23;678;-72
2022/10/21 03:44:46;;;;;;;;;;;;;;;14.70;69.18;100308.31;1237067;24;785;-73
2022/10/21 03:45:36;;;;;;;;;;;;;;;14.69;69.23;100306.63;1243227;23;643;-73
2022/10/21 03:46:27;;;;;;;;;;;;;;;14.68;69.03;100304.97;1242566;23;642;-73
2022/10/21 03:47:17;;;;;;;;;;;;;;;14.67;68.82;100303.28;1236927;24;685;-73
2022/10/21 03:48:08;;;;;;;;;;;;;;;14.67;69.35;100305.94;1237757;24;1953;-73
2022/10/21 03:48:58;;;;;;;;;;;;;;;14.66;68.80;100306.94;1237689;24;820;-73
2022/10/21 03:49:49;;;;;;;;;;;;;;;14.66;69.06;100301.56;1237762;24;584;-72
2022/10/21 03:50:39;;;;;;;;;;;;;;;14.67;69.28;100297.91;1237884;24;674;-73
2022/10/21 03:51:29;;;;;;;;;;;;;;;14.67;68.80;100302.41;1237800;23;615;-73
2022/10/21 03:52:20;;;;;;;;;;;;;;;14.68;68.90;100301.44;1237705;24;725;-73
2022/10/21 03:53:10;;;;;;;;;;;;;;;14.68;68.99;100296.91;1237768;24;635;-73
2022/10/21 03:54:01;;;;;;;;;;;;;;;14.68;69.10;100296.91;1237790;24;629;-73
2022/10/21 03:54:51;;;;;;;;;;;;;;;14.68;69.18;100298.75;1237762;23;598;-73
2022/10/21 03:55:42;;;;;;;;;;;;;;;14.68;69.24;100298.75;1237756;24;624;-73
2022/10/21 03:56:32;;;;;;;;;;;;;;;14.67;69.29;100292.53;1237828;24;627;-73
2022/10/21 03:57:25;;;;;;;;;;;;;;;14.66;69.20;100293.53;1237704;24;742;-73
2022/10/21 03:58:15;;;;;;;;;;;;;;;14.67;69.28;100283.66;1237191;24;627;-73
2022/10/21 03:59:05;;;;;;;;;;;;;;;14.66;69.26;100280.13;1237718;24;647;-73
2022/10/21 03:59:56;;;;;;;;;;;;;;;14.67;68.94;100280.97;1237703;24;627;-73
2022/10/21 04:00:46;;;;;;;;;;;;;;;14.68;68.98;100282.66;1237665;24;623;-73
2022/10/21 04:01:37;;;;;;;;;;;;;;;14.68;69.02;100277.28;1237903;24;721;-73
2022/10/21 04:02:27;;;;;;;;;;;;;;;14.68;69.43;100277.28;1237740;24;683;-74
2022/10/21 04:03:18;;;;;;;;;;;;;;;14.67;69.12;100279.13;1237864;23;623;-74
2022/10/21 04:04:08;;;;;;;;;;;;;;;14.67;69.09;100275.59;1237687;24;670;-73
2022/10/21 04:04:59;;;;;;;;;;;;;;;14.68;68.98;100277.28;1237714;24;658;-74
2022/10/21 04:05:49;;;;;;;;;;;;;;;14.66;69.16;100280.13;1243310;23;702;-74
2022/10/21 04:06:39;;;;;;;;;;;;;;;14.65;69.16;100275.75;1242386;23;627;-74
2022/10/21 04:07:30;;;;;;;;;;;;;;;14.66;69.22;100280.13;1237197;24;653;-73
2022/10/21 04:08:20;;;;;;;;;;;;;;;14.67;69.17;100275.59;1237647;24;1923;-73
2022/10/21 04:09:11;;;;;;;;;;;;;;;14.65;69.46;100275.75;1237728;24;662;-74
2022/10/21 04:10:02;;;;;;;;;;;;;;;14.67;68.98;100275.59;1237802;24;619;-73
2022/10/21 04:10:52;;;;;;;;;;;;;;;14.67;69.07;100272.91;1237037;24;650;-73
2022/10/21 04:11:42;;;;;;;;;;;;;;;14.66;69.28;100274.75;1237687;24;607;-74
2022/10/21 04:12:33;;;;;;;;;;;;;;;14.65;69.47;100265.00;1237746;24;701;-74
2022/10/21 04:13:23;;;;;;;;;;;;;;;14.66;69.45;100268.53;1237729;24;721;-73
2022/10/21 04:14:14;;;;;;;;;;;;;;;14.64;69.35;100274.03;1237739;24;650;-73
2022/10/21 04:15:04;;;;;;;;;;;;;;;14.65;69.50;100272.22;1237742;24;659;-74
2022/10/21 04:15:55;;;;;;;;;;;;;;;14.64;69.38;100268.69;1242615;23;638;-73
2022/10/21 04:16:45;;;;;;;;;;;;;;;14.66;69.57;100272.06;1243932;23;694;-74
2022/10/21 04:17:35;;;;;;;;;;;;;;;14.64;69.32;100268.69;1237084;24;627;-74
2022/10/21 04:18:26;;;;;;;;;;;;;;;14.65;69.09;100265.00;1237745;24;647;-73
2022/10/21 04:19:17;;;;;;;;;;;;;;;14.64;69.03;100268.69;1237770;24;713;-74
2022/10/21 04:20:07;;;;;;;;;;;;;;;14.64;69.05;100267.84;1237013;24;638;-73
2022/10/21 04:21:00;;;;;;;;;;;;;;;14.63;69.29;100269.66;1237725;24;722;-74
2022/10/21 04:21:50;;;;;;;;;;;;;;;14.62;69.33;100272.47;1237774;24;639;-74
2022/10/21 04:22:40;;;;;;;;;;;;;;;14.62;69.25;100267.97;1237083;24;662;-72
2022/10/21 04:23:31;;;;;;;;;;;;;;;14.63;69.45;100269.66;1237669;24;768;-72
2022/10/21 04:24:21;;;;;;;;;;;;;;;14.65;69.29;100266.84;1237652;24;639;-72
2022/10/21 04:25:12;;;;;;;;;;;;;;;14.63;69.52;100266.97;1237831;24;737;-72
2022/10/21 04:26:02;;;;;;;;;;;;;;;14.63;69.07;100269.66;1237653;24;655;-72